KFUL/FUL METAR and TAF weather

Enter ICAO airport designator
Station Type Date Time Source
KFUL METAR 2024/02/26 15:53 UTC NOAA

KFUL 261553Z VRB03KT 5SM BR OVC140 14/13 A3002 RMK AO2 SLP165 T01390128


Station Type Date Time Source
KFUL Decoded METAR 2024/02/26 15:53 UTC NOAA

FULLERTON MUNICIPAL AIRPORT , CA, United States (KFUL) 33-52N 117-59W 35M
Feb 26, 2024 - 10:53 AM EST / 2024.02.26 1553 UTC
Wind: Variable at 3 MPH (3 KT):0
Visibility: 5 mile(s):0
Sky conditions: overcast
Weather: mist
Temperature: 57.0 F (13.9 C)
Dew Point: 55.0 F (12.8 C)
Relative Humidity: 93%
Pressure (altimeter): 30.02 in. Hg (1016 hPa)
ob: KFUL 261553Z VRB03KT 5SM BR OVC140 14/13 A3002 RMK AO2 SLP165 T01390128
cycle: 16

Station Type Date Time Source
KFUL TAF UTC NOAA

Error!

Example: see airport list